Lake Villa, IL

10:38 AM CDT on May 03, 2015 (GMT -0500)
Sunshine Subdivision | | Change Station
CLOSE
Current Station
Personal Weather Station
Location: Third Lake, IL
Elevation: 792 ft
Nearby Weather Stations

Elev 792 ft 42.38 °N, 88.02 °W | Updated 1 second ago

Partly Cloudy
Partly Cloudy
70.5 °F
Feels Like 77 °F
N
4.9
Wind Variable Wind from SSW
Gusts 4.9 mph

Today
High -- | Low -- °F
--% Chance of Precip.
Yesterday
High -- | Low -- °F
Precip. -- in
5:44 AM 7:53 PM
Full, 100% visible
Pressure 29.93 in
Visibility 10.0 miles
Clouds Few 11000 ft
Heat Index 77 °F
Dew Point 47 °F
Humidity 43%
Rainfall 0.00 in
Snow Depth Not available.
UV 6 out of 12
Pollen 10.80 out of 12
Air Quality Not available.
Flu Activity Local Activity
METAR KUGN 031455Z 18011KT 10SM FEW110 22/08 A2994 RMK AO2 SLP135 T02170078 58008

More Conditions Fewer Conditions

Pressure 29.93 in
Visibility 10.0 miles
Clouds Few 11000 ft
Heat Index 77 °F
Dew Point 47 °F
Humidity 43%
Rainfall 0.00 in
Snow Depth Not available.
UV 6 out of 12
Pollen 10.80 out of 12
Air Quality Not available.
Flu Activity Local Activity
METAR KUGN 031455Z 18011KT 10SM FEW110 22/08 A2994 RMK AO2 SLP135 T02170078 58008

More Conditions Fewer Conditions

Nepal has a long way to go to dig out and rebuild from a devastating earthquake. We have teamed up with several charities and organizations to make contributing to the relief effort as easy as possible.
How you can help: Portlight Strategies | Red Cross

10-Day Weather Forecast

Almanac

Astronomy

May. 03, 2015 Rise Set
Actual Time
Civil Twilight
Nautical Twilight
Astronomical Twilight
Moon
Length of Visible Light
Length of Day
Tomorrow will be .
, % of the Moon is Illuminated

Today's Extremes

State Highs State Lows

Community

WunderPhotos

Upload Photos

1,818,255 photos uploaded!

WunderBlogs® & News

Nearby

Air Quality

  Air Quality AQ Index Pollutant
Not available.

Snow Depth

Station Depth Elevation

Earthquake Activity

City Distance Mag. Time & Date
Minimum magnitude displayed is 2.5.

Coastal Water Temperatures

Place Temperature

Stations

Nearby Weather Stations

Station Location Temp. Windchill Dew Point Humidity Wind Precip. Elev Updated Type